Station: ADELAIDE WEST TERRACE

  Atmospheric Gas Attenuation - ITU Rec 676-11   --------------- db/100km ---------------
Date Time Temp RH % AH g/m3 Dew Point Wind Direction Speed kph Gust kph Barometer mB Rainfall Since 9am 24GHz 47GHz 76GHz 122GHz 134GHz 241GHz
17 01:30 9.9 83 7.75 7.2 9 15 1021.2 0 17.9 25.9 38.6 101.2 92.5 317.1
17 01:20 9.9 84 7.85 7.3 7 9 1021.5 0 18.2 26.1 39.0 102.3 93.8 321.9
17 01:10 9.9 85 7.94 7.5 9 9 1021.4 0 18.4 26.3 39.4 103.3 95.1 326.2
17 01:00 9.5 87 7.92 7.4 9 11 1021.6 0 18.3 26.4 39.5 103.6 95.3 327.0
17 00:50 9.4 88 7.96 7.5 7 9 1021.7 0 18.4 26.5 39.8 104.2 96.0 329.3
17 00:40 9 89 7.85 7.3 6 7 1021.8 0 18.2 26.4 39.5 103.5 95.0 325.7
17 00:30 9 91 8.03 7.6 7 11 1021.9 0 18.6 26.7 40.3 105.5 97.5 334.5
17 00:20 7.7 89 7.22 6 6 7 1022 0 16.9 25.7 37.5 98.2 87.9 300.6
17 00:10 8 87 7.2 6 0 0 1022.2 0 16.8 25.6 37.3 97.6 87.3 298.6
17 00:00 9.7 80 7.38 6.4 7 9 1022.2 0 17.2 25.4 37.2 97.5 87.8 300.6
16 23:50 10.5 82 7.95 7.6 7 9 1022.2 0 18.3 26.1 39.2 102.7 94.5 324.4
16 23:40 10.6 81 7.91 7.5 9 11 1022.3 0 18.3 26.0 39.0 102.1 93.9 322.1
16 23:30 10.4 82 7.9 7.5 9 11 1022.5 0 18.2 26.1 39.1 102.3 94.0 322.5
16 23:20 10.4 83 8 7.6 9 11 1022.5 0 18.5 26.3 39.5 103.4 95.4 327.3
16 23:10 9.8 85 7.89 7.4 7 9 1022.5 0 18.2 26.3 39.3 103.0 94.6 324.5
16 23:00 9.8 85 7.89 7.4 6 7 1022.5 0 18.2 26.3 39.3 103.0 94.6 324.5
16 22:50 9.8 85 7.89 7.4 6 7 1022.6 0 18.2 26.3 39.3 103.0 94.6 324.5
16 22:40 10 84 7.9 7.4 7 9 1022.5 0 18.3 26.2 39.3 102.8 94.5 324.2
16 22:30 10.2 83 7.9 7.4 9 13 1022.4 0 18.3 26.1 39.1 102.5 94.2 323.3
16 22:20 10.4 83 8 7.6 11 11 1022.3 0 18.5 26.2 39.5 103.4 95.3 327.2
16 22:10 10.6 82 8.01 7.7 7 9 1022.5 0 18.5 26.2 39.4 103.2 95.2 326.9
16 22:00 10.5 83 8.05 7.7 9 15 1022.6 0 18.6 26.3 39.6 103.8 95.9 329.3
16 21:50 10.6 85 8.3 8.2 11 13 1022.7 0 19.1 26.7 40.6 106.5 99.2 340.8
16 21:40 9.4 92 8.32 8.2 9 11 1022.8 0 19.2 27.1 41.3 108.4 101.1 347.1
16 21:30 8.3 91 7.67 6.9 0 0 1023.3 0 17.8 26.4 39.2 102.6 93.5 320.3
16 21:20 8.5 89 7.6 6.8 0 0 1023.3 0 17.7 26.2 38.8 101.5 92.2 316.1
16 21:10 8.7 88 7.61 6.8 6 6 1023.3 0 17.7 26.1 38.7 101.4 92.1 315.8
16 21:00 9.2 86 7.68 7 6 7 1023.3 0 17.8 26.1 38.8 101.5 92.5 317.1
16 20:50 9.5 83 7.56 6.8 6 7 1023.3 0 17.6 25.8 38.1 99.8 90.5 310.2
16 20:40 10.4 81 7.81 7.3 7 7 1023.1 0 18.0 26.0 38.7 101.4 92.8 318.4
16 20:30 11.2 80 8.11 7.9 7 9 1023 0 18.7 26.2 39.5 103.6 95.9 329.3
16 20:20 11 80 8.01 7.7 7 9 1023 0 18.5 26.1 39.2 102.8 94.8 325.4
16 20:10 11.4 81 8.32 8.3 7 9 1023.1 0 19.1 26.5 40.3 105.7 98.5 338.4
16 20:00 10.6 84 8.2 8 9 11 1023 0 18.9 26.6 40.2 105.4 97.9 336.1
16 19:50 9.6 90 8.25 8 2 6 1023.2 0 19.0 26.9 41.0 107.3 99.9 342.9
16 19:40 9.6 90 8.25 8 0 0 1023.2 0 19.0 26.9 41.0 107.3 99.9 342.9
16 19:30 9.5 90 8.19 7.9 0 0 1023.3 0 18.9 26.9 40.8 106.8 99.2 340.5
16 19:20 9.3 90 8.09 7.7 0 0 1023.3 0 18.7 26.8 40.4 106.0 98.0 336.5
16 19:10 9.4 89 8.05 7.7 0 0 1023.2 0 18.6 26.7 40.2 105.4 97.3 334.1
16 19:00 9.6 87 7.97 7.5 0 0 1023.1 0 18.4 26.5 39.8 104.2 96.0 329.4
16 18:50 9.8 86 7.98 7.6 0 0 1023 0 18.4 26.4 39.7 104.0 95.9 329.0
16 18:40 10.3 86 8.24 8.1 0 0 1023 0 19.0 26.7 40.5 106.2 98.8 339.3
16 18:30 10.4 86 8.29 8.2 0 0 1022.9 0 19.1 26.8 40.7 106.7 99.4 341.3
16 18:20 10.4 84 8.1 7.8 0 0 1022.8 0 18.7 26.4 39.9 104.5 96.7 332.1
16 18:10 10.6 83 8.1 7.8 0 0 1022.8 0 18.7 26.4 39.8 104.3 96.5 331.3
16 18:00 10.9 82 8.16 8 0 0 1022.7 0 18.8 26.4 39.9 104.5 96.9 332.8
16 17:50 11 81 8.11 7.9 0 0 1022.7 0 18.7 26.3 39.6 103.8 96.1 330.0
16 17:40 11.3 79 8.06 7.8 6 7 1022.7 0 18.5 26.1 39.3 102.9 95.1 326.4
16 17:30 11.6 78 8.11 7.9 6 9 1022.7 0 18.6 26.1 39.3 103.0 95.4 327.5
16 17:20 12.1 75 8.04 7.8 4 6 1022.7 0 18.5 25.8 38.8 101.6 93.8 322.2
16 17:10 12.8 72 8.07 7.9 6 7 1022.7 0 18.5 25.7 38.6 101.1 93.4 320.7
16 17:00 13.3 70 8.09 8 6 9 1022.7 0 18.5 25.6 38.4 100.6 93.1 319.6
16 16:50 13.7 67 7.93 7.7 6 7 1022.8 0 18.2 25.2 37.6 98.4 90.5 310.7
16 16:40 13.8 66 7.86 7.6 6 7 1022.8 0 18.0 25.1 37.3 97.6 89.5 307.1
16 16:30 14.3 63 7.74 7.4 7 11 1022.8 0 17.7 24.7 36.6 95.7 87.4 299.8
16 16:20 14.3 62 7.62 7.1 9 11 1022.8 0 17.5 24.5 36.1 94.5 85.8 294.5
16 16:10 14.6 61 7.63 7.2 9 11 1022.9 0 17.5 24.5 36.0 94.2 85.6 293.8
16 16:00 14.5 60 7.46 6.8 9 13 1023 0 17.1 24.3 35.4 92.6 83.6 286.7
16 15:50 14.6 60 7.51 6.9 9 11 1023 0 17.2 24.3 35.6 93.0 84.1 288.5
16 15:40 14.6 61 7.63 7.2 9 11 1022.9 0 17.5 24.5 36.0 94.2 85.6 293.8
16 15:30 14.8 62 7.85 7.6 9 17 1022.9 0 17.9 24.8 36.8 96.3 88.2 302.9
16 15:20 14.5 61 7.59 7.1 9 13 1022.9 0 17.4 24.5 35.9 93.9 85.2 292.4
16 15:10 14.7 60 7.55 7 9 11 1022.8 0 17.3 24.3 35.7 93.3 84.5 289.9
16 15:00 14.8 60 7.6 7.1 11 20 1022.8 0 17.4 24.4 35.8 93.7 85.0 291.7
16 14:50 14.9 61 7.77 7.5 11 15 1022.8 0 17.8 24.6 36.4 95.3 87.1 298.9
16 14:40 15 61 7.82 7.5 15 17 1022.8 0 17.9 24.7 36.6 95.7 87.6 300.8
16 14:30 15.3 59 7.7 7.3 13 17 1022.8 0 17.6 24.4 36.0 94.1 85.8 294.3
16 14:20 15.8 61 8.21 8.3 9 13 1022.7 0 18.7 25.1 37.7 98.7 91.7 315.0
16 14:10 15.7 56 7.49 7 13 17 1022.7 0 17.1 24.0 35.0 91.5 82.7 283.6
16 14:00 16 58 7.9 7.7 11 17 1022.8 0 18.0 24.5 36.4 95.3 87.5 300.5
16 13:50 16.1 55 7.54 7.1 11 13 1022.8 0 17.2 23.9 35.0 91.6 82.9 284.4
16 13:40 16.8 53 7.58 7.2 9 11 1022.8 0 17.3 23.8 34.9 91.2 82.7 283.7
16 13:30 17.1 51 7.42 6.9 6 9 1022.9 0 16.9 23.5 34.1 89.3 80.4 275.8
16 13:20 17.2 53 7.76 7.5 7 9 1023 0 17.6 24.0 35.4 92.5 84.5 290.0
16 13:10 16.9 52 7.48 7 6 7 1023.1 0 17.1 23.7 34.5 90.1 81.4 279.1
16 13:00 16.6 51 7.2 6.4 4 7 1023.3 0 16.5 23.3 33.6 87.7 78.3 268.2
16 12:50 16.2 52 7.17 6.3 6 6 1023.4 0 16.4 23.4 33.6 87.8 78.3 268.2
16 12:40 16 56 7.63 7.2 0 0 1023.6 0 17.4 24.1 35.4 92.7 84.2 288.9
16 12:30 16 50 6.81 5.6 2 9 1023.9 0 15.7 22.9 32.4 84.5 74.2 253.7
16 12:20 15.7 52 6.96 5.9 6 7 1024.1 0 16.0 23.2 33.1 86.4 76.3 261.1
16 12:10 15.8 54 7.27 6.5 6 7 1024.2 0 16.7 23.7 34.2 89.3 80.0 274.1
16 12:00 15.6 55 7.31 6.6 4 11 1024.4 0 16.8 23.8 34.4 90.0 80.7 276.5
16 11:50 15.1 53 6.84 5.6 0 0 1024.6 0 15.8 23.2 32.9 85.9 75.4 258.0
16 11:40 15.2 51 6.62 5.1 7 9 1024.8 0 15.3 22.9 32.0 83.6 72.6 248.3
16 11:30 15 50 6.41 4.7 6 11 1025 0 14.9 22.6 31.4 81.8 70.3 240.0
16 11:20 15 53 6.8 5.5 0 4 1025.1 0 15.7 23.2 32.8 85.6 75.0 256.7
16 11:10 14.7 55 6.92 5.8 6 7 1025.1 0 16.0 23.5 33.4 87.1 76.8 262.8
16 11:00 14.5 55 6.84 5.6 6 11 1025.2 0 15.8 23.4 33.2 86.6 76.0 260.0
16 10:50 13.9 54 6.47 4.8 9 11 1025.4 0 15.0 23.0 32.0 83.5 72.0 246.0
16 10:40 13.4 55 6.39 4.6 11 13 1025.4 0 14.9 23.0 31.9 83.2 71.5 244.0
16 10:30 13.3 57 6.59 5 9 15 1025.5 0 15.3 23.3 32.7 85.4 74.1 253.1
16 10:20 13.3 56 6.47 4.7 9 9 1025.5 0 15.1 23.1 32.3 84.2 72.6 247.8
16 10:10 12.9 59 6.65 5.1 7 7 1025.5 0 15.5 23.5 33.1 86.4 75.2 257.0
16 10:00 12.8 60 6.72 5.2 7 9 1025.4 0 15.6 23.6 33.4 87.2 76.2 260.3
16 09:50 12.2 60 6.48 4.7 7 9 1025.3 0 15.1 23.4 32.7 85.4 73.7 251.7
16 09:40 12.3 57 6.19 4 6 9 1025.2 0 14.5 23.0 31.6 82.4 70.0 238.6
16 09:30 12.3 60 6.52 4.8 0 6 1025.1 0 15.2 23.5 32.8 85.7 74.1 253.1
16 09:20 11 65 6.51 4.7 0 0 1025 0 15.2 23.8 33.3 87.0 75.2 256.7
16 09:10 10.4 68 6.56 4.8 0 0 1025.1 0 15.4 24.0 33.8 88.2 76.4 261.0
16 09:00 10.2 67 6.38 4.4 0 0 1025.1 0 15.0 23.8 33.2 86.5 74.3 253.5

Last Refresh: 17-Jul-2020 01:44:56

Most of the information presented on this site is sourced from the Bureau of Meteorology.  Copyright in all material sourced from the Bureau of Meteorology resides with the Commonwealth of Australia.